This is the latest recevied weather packets stored in our database for station/object W0VI. If no packets are shown the sender has not sent any weather packets the latest 10 day(s).
| Time | Temp. | Humidity | Pressure | Rain* | Wind** | Luminosity | Snow |
|---|---|---|---|---|---|---|---|
| 1787594332 | 25.56° C | 63% | 1017.5 hPa | 0 mm | - | 534 W/m² | - |
| 1787594027 | 25.56° C | 64% | 1017.4 hPa | 0 mm | - | 529 W/m² | - |
| 1787593727 | 25° C | 66% | 1017.6 hPa | 0 mm | - | 632 W/m² | - |
| 1787593422 | 25° C | 63% | 1017.4 hPa | 0 mm | - | 289 W/m² | - |
| 1787593117 | 24.44° C | 65% | 1017.2 hPa | 0 mm | - | 484 W/m² | - |
| 1787592813 | 24.44° C | 65% | 1017.4 hPa | 0 mm | - | 262 W/m² | - |
| 1787592512 | 23.89° C | 65% | 1017.8 hPa | 0 mm | - | 284 W/m² | - |
| 1787592212 | 24.44° C | 65% | 1017.7 hPa | 0 mm | - | 264 W/m² | - |
| 1787591909 | 23.89° C | 65% | 1017.9 hPa | 0 mm | - | 290 W/m² | - |
| 1787591603 | 24.44° C | 63% | 1017.7 hPa | 0 mm | - | 306 W/m² | - |
| 1787591299 | 24.44° C | 64% | 1017.8 hPa | 0 mm | - | 518 W/m² | - |
| 1787590989 | 23.89° C | 63% | 1017.8 hPa | 0 mm | - | 321 W/m² | - |
| 1787590685 | 23.89° C | 62% | 1017.8 hPa | 0 mm | - | 432 W/m² | - |
| 1787590380 | 23.89° C | 62% | 1017.9 hPa | 0 mm | - | 566 W/m² | - |
| 1787590075 | 23.89° C | 61% | 1018 hPa | 0 mm | - | 452 W/m² | - |
| 1787589771 | 23.33° C | 63% | 1018 hPa | 0 mm | - | 481 W/m² | - |
| 1787589466 | 23.33° C | 64% | 1018 hPa | 0 mm | - | 345 W/m² | - |
| 1787589161 | 22.78° C | 66% | 1018.1 hPa | 0 mm | - | 373 W/m² | - |
| 1787588856 | 22.22° C | 66% | 1017.9 hPa | 0 mm | - | 219 W/m² | - |
| 1787588553 | 22.78° C | 67% | 1018 hPa | 0 mm | - | 199 W/m² | - |
| 1787588248 | 22.78° C | 65% | 1018.2 hPa | 0 mm | - | 186 W/m² | - |
| 1787587943 | 22.78° C | 65% | 1017.9 hPa | 0 mm | - | 237 W/m² | - |
| 1787587638 | 22.78° C | 65% | 1017.9 hPa | 0 mm | - | 279 W/m² | - |
| 1787587332 | 22.78° C | 66% | 1017.9 hPa | 0 mm | - | 259 W/m² | - |
| 1787587027 | 22.22° C | 65% | 1017.9 hPa | 0 mm | - | 188 W/m² | - |
* Rain latest hour (hover to see other rain measurements)
** Current wind speed in m/s (hover to see current wind gust speed)